sensor_id;sensor_type;location;lat;lon;timestamp;temperature;humidity
29551;DHT22;16488;52.396;10.696;2023-02-01T00:01:26;5.00;99.90
29551;DHT22;16488;52.396;10.696;2023-02-01T00:03:52;5.00;99.90
29551;DHT22;16488;52.396;10.696;2023-02-01T00:06:18;5.00;99.90
29551;DHT22;16488;52.396;10.696;2023-02-01T00:08:43;5.10;99.90
29551;DHT22;16488;52.396;10.696;2023-02-01T00:11:11;5.10;99.90
29551;DHT22;16488;52.396;10.696;2023-02-01T00:13:39;5.10;99.90
29551;DHT22;16488;52.396;10.696;2023-02-01T00:16:08;5.20;99.90
29551;DHT22;16488;52.396;10.696;2023-02-01T00:18:34;5.20;99.90
29551;DHT22;16488;52.396;10.696;2023-02-01T00:21:00;5.20;99.90
29551;DHT22;16488;52.396;10.696;2023-02-01T00:23:26;5.30;99.90
29551;DHT22;16488;52.396;10.696;2023-02-01T00:25:52;5.30;99.90
29551;DHT22;16488;52.396;10.696;2023-02-01T00:28:17;5.40;99.90
29551;DHT22;16488;52.396;10.696;2023-02-01T00:30:43;5.40;99.90
29551;DHT22;16488;52.396;10.696;2023-02-01T00:33:09;5.40;99.90
29551;DHT22;16488;52.396;10.696;2023-02-01T00:35:35;5.40;99.90
29551;DHT22;16488;52.396;10.696;2023-02-01T00:38:01;5.50;99.90
29551;DHT22;16488;52.396;10.696;2023-02-01T00:40:27;5.50;99.90
29551;DHT22;16488;52.396;10.696;2023-02-01T00:42:52;5.50;99.90
29551;DHT22;16488;52.396;10.696;2023-02-01T00:45:19;5.50;99.90
29551;DHT22;16488;52.396;10.696;2023-02-01T00:47:44;5.40;99.90
29551;DHT22;16488;52.396;10.696;2023-02-01T00:50:10;5.40;99.90
29551;DHT22;16488;52.396;10.696;2023-02-01T00:52:35;5.40;99.90
29551;DHT22;16488;52.396;10.696;2023-02-01T00:55:01;5.50;99.90
29551;DHT22;16488;52.396;10.696;2023-02-01T00:57:27;5.50;99.90
29551;DHT22;16488;52.396;10.696;2023-02-01T00:59:53;5.50;99.90
29551;DHT22;16488;52.396;10.696;2023-02-01T01:02:18;5.50;99.90
29551;DHT22;16488;52.396;10.696;2023-02-01T01:04:44;5.50;99.90
29551;DHT22;16488;52.396;10.696;2023-02-01T01:07:09;5.40;99.90
29551;DHT22;16488;52.396;10.696;2023-02-01T01:09:35;5.40;99.90
29551;DHT22;16488;52.396;10.696;2023-02-01T01:12:00;5.30;99.90
29551;DHT22;16488;52.396;10.696;2023-02-01T01:14:30;5.40;99.90
29551;DHT22;16488;52.396;10.696;2023-02-01T01:16:55;5.30;99.90
29551;DHT22;16488;52.396;10.696;2023-02-01T01:19:21;5.30;99.90
29551;DHT22;16488;52.396;10.696;2023-02-01T01:21:47;5.30;99.90
29551;DHT22;16488;52.396;10.696;2023-02-01T01:24:12;5.30;99.90
29551;DHT22;16488;52.396;10.696;2023-02-01T01:26:38;5.30;99.90
29551;DHT22;16488;52.396;10.696;2023-02-01T01:29:04;5.30;99.90
29551;DHT22;16488;52.396;10.696;2023-02-01T01:31:30;5.30;99.90
29551;DHT22;16488;52.396;10.696;2023-02-01T01:33:58;5.30;99.90
29551;DHT22;16488;52.396;10.696;2023-02-01T01:36:25;5.30;99.90
29551;DHT22;16488;52.396;10.696;2023-02-01T01:38:51;5.30;99.90
29551;DHT22;16488;52.396;10.696;2023-02-01T01:41:20;5.30;99.90
29551;DHT22;16488;52.396;10.696;2023-02-01T01:46:20;5.30;99.90
29551;DHT22;16488;52.396;10.696;2023-02-01T01:48:48;5.30;99.90
29551;DHT22;16488;52.396;10.696;2023-02-01T01:51:17;5.30;99.90
29551;DHT22;16488;52.396;10.696;2023-02-01T01:53:50;5.30;99.90
29551;DHT22;16488;52.396;10.696;2023-02-01T01:56:18;5.40;99.90
29551;DHT22;16488;52.396;10.696;2023-02-01T01:58:44;5.30;99.90
29551;DHT22;16488;52.396;10.696;2023-02-01T02:01:10;5.30;99.90
29551;DHT22;16488;52.396;10.696;2023-02-01T02:03:45;5.40;99.90
29551;DHT22;16488;52.396;10.696;2023-02-01T02:08:51;5.30;99.90
29551;DHT22;16488;52.396;10.696;2023-02-01T02:11:17;5.30;99.90
29551;DHT22;16488;52.396;10.696;2023-02-01T02:13:47;5.30;99.90
29551;DHT22;16488;52.396;10.696;2023-02-01T02:22:05;5.30;99.90
29551;DHT22;16488;52.396;10.696;2023-02-01T02:37:06;5.30;99.90
29551;DHT22;16488;52.396;10.696;2023-02-01T02:42:00;5.30;99.90
29551;DHT22;16488;52.396;10.696;2023-02-01T02:45:14;5.40;99.90
29551;DHT22;16488;52.396;10.696;2023-02-01T02:48:25;5.40;99.90
29551;DHT22;16488;52.396;10.696;2023-02-01T02:51:00;5.30;99.90
29551;DHT22;16488;52.396;10.696;2023-02-01T02:53:51;5.20;99.90
29551;DHT22;16488;52.396;10.696;2023-02-01T02:56:37;5.30;99.90
29551;DHT22;16488;52.396;10.696;2023-02-01T02:59:24;5.30;99.90
29551;DHT22;16488;52.396;10.696;2023-02-01T03:02:09;5.30;99.90
29551;DHT22;16488;52.396;10.696;2023-02-01T03:04:54;5.20;99.90
29551;DHT22;16488;52.396;10.696;2023-02-01T03:21:02;5.20;99.90
29551;DHT22;16488;52.396;10.696;2023-02-01T03:23:32;5.20;99.90
29551;DHT22;16488;52.396;10.696;2023-02-01T03:26:01;5.20;99.90
29551;DHT22;16488;52.396;10.696;2023-02-01T03:28:30;5.20;99.90
29551;DHT22;16488;52.396;10.696;2023-02-01T03:30:58;5.10;99.90
29551;DHT22;16488;52.396;10.696;2023-02-01T03:33:25;5.10;99.90
29551;DHT22;16488;52.396;10.696;2023-02-01T03:36:03;5.10;99.90
29551;DHT22;16488;52.396;10.696;2023-02-01T03:38:49;5.10;99.90
29551;DHT22;16488;52.396;10.696;2023-02-01T03:41:31;5.10;99.90
29551;DHT22;16488;52.396;10.696;2023-02-01T03:46:53;5.10;99.90
29551;DHT22;16488;52.396;10.696;2023-02-01T03:49:52;5.10;99.90
29551;DHT22;16488;52.396;10.696;2023-02-01T03:52:23;5.10;99.90
29551;DHT22;16488;52.396;10.696;2023-02-01T03:54:51;5.00;99.90
29551;DHT22;16488;52.396;10.696;2023-02-01T03:57:22;5.10;99.90
29551;DHT22;16488;52.396;10.696;2023-02-01T03:59:49;5.00;99.90
29551;DHT22;16488;52.396;10.696;2023-02-01T04:02:15;5.00;99.90
29551;DHT22;16488;52.396;10.696;2023-02-01T04:04:41;5.00;99.90
29551;DHT22;16488;52.396;10.696;2023-02-01T04:07:07;5.00;99.90
29551;DHT22;16488;52.396;10.696;2023-02-01T04:09:32;5.00;99.90
29551;DHT22;16488;52.396;10.696;2023-02-01T04:11:58;5.00;99.90
29551;DHT22;16488;52.396;10.696;2023-02-01T04:14:23;5.00;99.90
29551;DHT22;16488;52.396;10.696;2023-02-01T04:16:49;5.00;99.90
29551;DHT22;16488;52.396;10.696;2023-02-01T04:19:14;5.00;99.90
29551;DHT22;16488;52.396;10.696;2023-02-01T04:21:40;5.00;99.90
29551;DHT22;16488;52.396;10.696;2023-02-01T04:24:06;5.10;99.90
29551;DHT22;16488;52.396;10.696;2023-02-01T04:26:32;5.10;99.90
29551;DHT22;16488;52.396;10.696;2023-02-01T04:28:57;5.10;99.90
29551;DHT22;16488;52.396;10.696;2023-02-01T04:31:23;5.00;99.90
29551;DHT22;16488;52.396;10.696;2023-02-01T04:33:53;5.10;99.90
29551;DHT22;16488;52.396;10.696;2023-02-01T04:36:19;5.10;99.90
29551;DHT22;16488;52.396;10.696;2023-02-01T04:38:51;5.00;99.90
29551;DHT22;16488;52.396;10.696;2023-02-01T04:41:17;5.00;99.90
29551;DHT22;16488;52.396;10.696;2023-02-01T04:43:47;5.10;99.90
29551;DHT22;16488;52.396;10.696;2023-02-01T04:46:14;5.10;99.90
29551;DHT22;16488;52.396;10.696;2023-02-01T04:48:39;5.10;99.90
29551;DHT22;16488;52.396;10.696;2023-02-01T04:51:05;5.00;99.90
29551;DHT22;16488;52.396;10.696;2023-02-01T04:53:31;5.00;99.90
29551;DHT22;16488;52.396;10.696;2023-02-01T04:55:57;5.10;99.90
29551;DHT22;16488;52.396;10.696;2023-02-01T04:58:22;5.10;99.90
29551;DHT22;16488;52.396;10.696;2023-02-01T05:00:48;5.10;99.90
29551;DHT22;16488;52.396;10.696;2023-02-01T05:03:15;5.20;99.90
29551;DHT22;16488;52.396;10.696;2023-02-01T05:05:40;5.20;99.90
29551;DHT22;16488;52.396;10.696;2023-02-01T05:08:06;5.20;99.90
29551;DHT22;16488;52.396;10.696;2023-02-01T05:10:31;5.20;99.90
29551;DHT22;16488;52.396;10.696;2023-02-01T05:12:57;5.20;99.90
29551;DHT22;16488;52.396;10.696;2023-02-01T05:15:41;5.20;99.90
29551;DHT22;16488;52.396;10.696;2023-02-01T05:18:06;5.20;99.90
29551;DHT22;16488;52.396;10.696;2023-02-01T05:20:32;5.20;99.90
29551;DHT22;16488;52.396;10.696;2023-02-01T05:22:58;5.20;99.90
29551;DHT22;16488;52.396;10.696;2023-02-01T05:25:23;5.20;99.90
29551;DHT22;16488;52.396;10.696;2023-02-01T05:27:49;5.20;99.90
29551;DHT22;16488;52.396;10.696;2023-02-01T05:30:14;5.20;99.90
29551;DHT22;16488;52.396;10.696;2023-02-01T05:32:40;5.10;99.90
29551;DHT22;16488;52.396;10.696;2023-02-01T05:35:06;5.10;99.90
29551;DHT22;16488;52.396;10.696;2023-02-01T05:37:32;5.00;99.90
29551;DHT22;16488;52.396;10.696;2023-02-01T05:39:57;4.90;99.90
29551;DHT22;16488;52.396;10.696;2023-02-01T05:42:23;4.90;99.90
29551;DHT22;16488;52.396;10.696;2023-02-01T05:44:48;4.80;99.90
29551;DHT22;16488;52.396;10.696;2023-02-01T05:47:14;4.80;99.90
29551;DHT22;16488;52.396;10.696;2023-02-01T05:49:40;4.70;99.90
29551;DHT22;16488;52.396;10.696;2023-02-01T05:52:05;4.70;99.90
29551;DHT22;16488;52.396;10.696;2023-02-01T05:54:31;4.70;99.90
29551;DHT22;16488;52.396;10.696;2023-02-01T05:56:56;4.70;99.90
29551;DHT22;16488;52.396;10.696;2023-02-01T05:59:22;4.60;99.90
29551;DHT22;16488;52.396;10.696;2023-02-01T06:01:47;4.60;99.90
29551;DHT22;16488;52.396;10.696;2023-02-01T06:04:13;4.50;99.90
29551;DHT22;16488;52.396;10.696;2023-02-01T06:06:39;4.40;99.90
29551;DHT22;16488;52.396;10.696;2023-02-01T06:09:04;4.40;99.90
29551;DHT22;16488;52.396;10.696;2023-02-01T06:11:30;4.30;99.90
29551;DHT22;16488;52.396;10.696;2023-02-01T06:13:56;4.40;99.90
29551;DHT22;16488;52.396;10.696;2023-02-01T06:16:22;4.40;99.90
29551;DHT22;16488;52.396;10.696;2023-02-01T06:18:48;4.40;99.90
29551;DHT22;16488;52.396;10.696;2023-02-01T06:21:13;4.40;99.90
29551;DHT22;16488;52.396;10.696;2023-02-01T06:23:41;4.40;99.90
29551;DHT22;16488;52.396;10.696;2023-02-01T06:26:07;4.40;99.90
29551;DHT22;16488;52.396;10.696;2023-02-01T06:28:35;4.40;99.90
29551;DHT22;16488;52.396;10.696;2023-02-01T06:31:05;4.40;99.90
29551;DHT22;16488;52.396;10.696;2023-02-01T06:33:34;4.40;99.90
29551;DHT22;16488;52.396;10.696;2023-02-01T06:36:01;4.40;99.90
29551;DHT22;16488;52.396;10.696;2023-02-01T06:38:27;4.40;99.90
29551;DHT22;16488;52.396;10.696;2023-02-01T06:40:54;4.40;99.90
29551;DHT22;16488;52.396;10.696;2023-02-01T06:43:23;4.50;99.90
29551;DHT22;16488;52.396;10.696;2023-02-01T06:45:50;4.50;99.90
29551;DHT22;16488;52.396;10.696;2023-02-01T06:48:15;4.60;99.90
29551;DHT22;16488;52.396;10.696;2023-02-01T06:50:41;4.60;99.90
29551;DHT22;16488;52.396;10.696;2023-02-01T06:53:07;4.70;99.90
29551;DHT22;16488;52.396;10.696;2023-02-01T06:55:32;4.70;99.90
29551;DHT22;16488;52.396;10.696;2023-02-01T06:57:58;4.60;99.90
29551;DHT22;16488;52.396;10.696;2023-02-01T07:00:24;4.60;99.90
29551;DHT22;16488;52.396;10.696;2023-02-01T07:02:50;4.60;99.90
29551;DHT22;16488;52.396;10.696;2023-02-01T07:05:17;4.50;99.90
29551;DHT22;16488;52.396;10.696;2023-02-01T07:07:42;4.40;99.90
29551;DHT22;16488;52.396;10.696;2023-02-01T07:10:09;4.40;99.90
29551;DHT22;16488;52.396;10.696;2023-02-01T07:12:35;4.40;99.90
29551;DHT22;16488;52.396;10.696;2023-02-01T07:15:01;4.40;99.90
29551;DHT22;16488;52.396;10.696;2023-02-01T07:17:28;4.30;99.90
29551;DHT22;16488;52.396;10.696;2023-02-01T07:19:55;4.30;99.90
29551;DHT22;16488;52.396;10.696;2023-02-01T07:22:20;4.30;99.90
29551;DHT22;16488;52.396;10.696;2023-02-01T07:24:46;4.30;99.90
29551;DHT22;16488;52.396;10.696;2023-02-01T07:27:12;4.40;99.90
29551;DHT22;16488;52.396;10.696;2023-02-01T07:29:37;4.40;99.90
29551;DHT22;16488;52.396;10.696;2023-02-01T07:32:03;4.40;99.90
29551;DHT22;16488;52.396;10.696;2023-02-01T07:34:29;4.50;99.90
29551;DHT22;16488;52.396;10.696;2023-02-01T07:36:56;4.50;99.90
29551;DHT22;16488;52.396;10.696;2023-02-01T07:39:22;4.50;99.90
29551;DHT22;16488;52.396;10.696;2023-02-01T07:41:48;4.50;99.90
29551;DHT22;16488;52.396;10.696;2023-02-01T07:44:14;4.60;99.90
29551;DHT22;16488;52.396;10.696;2023-02-01T07:46:39;4.50;99.90
29551;DHT22;16488;52.396;10.696;2023-02-01T07:49:05;4.60;99.90
29551;DHT22;16488;52.396;10.696;2023-02-01T07:51:31;4.60;99.90
29551;DHT22;16488;52.396;10.696;2023-02-01T07:53:57;4.60;99.90
29551;DHT22;16488;52.396;10.696;2023-02-01T07:56:23;4.60;99.90
29551;DHT22;16488;52.396;10.696;2023-02-01T07:58:51;4.60;99.90
29551;DHT22;16488;52.396;10.696;2023-02-01T08:01:19;4.60;99.90
29551;DHT22;16488;52.396;10.696;2023-02-01T08:03:45;4.60;99.90
29551;DHT22;16488;52.396;10.696;2023-02-01T08:06:10;4.60;99.90
29551;DHT22;16488;52.396;10.696;2023-02-01T08:08:36;4.60;99.90
29551;DHT22;16488;52.396;10.696;2023-02-01T08:11:04;4.60;99.90
29551;DHT22;16488;52.396;10.696;2023-02-01T08:13:30;4.60;99.90
29551;DHT22;16488;52.396;10.696;2023-02-01T08:16:00;4.50;99.90
29551;DHT22;16488;52.396;10.696;2023-02-01T08:18:26;4.50;99.90
29551;DHT22;16488;52.396;10.696;2023-02-01T08:20:52;4.50;99.90
29551;DHT22;16488;52.396;10.696;2023-02-01T08:23:18;4.50;99.90
29551;DHT22;16488;52.396;10.696;2023-02-01T08:25:44;4.50;99.90
29551;DHT22;16488;52.396;10.696;2023-02-01T08:28:10;4.50;99.90
29551;DHT22;16488;52.396;10.696;2023-02-01T08:30:39;4.60;99.90
29551;DHT22;16488;52.396;10.696;2023-02-01T08:33:05;4.60;99.90
29551;DHT22;16488;52.396;10.696;2023-02-01T08:35:37;4.60;99.90
29551;DHT22;16488;52.396;10.696;2023-02-01T08:38:03;4.60;99.90
29551;DHT22;16488;52.396;10.696;2023-02-01T08:40:30;4.60;99.90
29551;DHT22;16488;52.396;10.696;2023-02-01T08:42:56;4.60;99.90
29551;DHT22;16488;52.396;10.696;2023-02-01T08:45:25;4.60;99.90
29551;DHT22;16488;52.396;10.696;2023-02-01T08:47:52;4.60;99.90
29551;DHT22;16488;52.396;10.696;2023-02-01T08:50:19;4.60;99.90
29551;DHT22;16488;52.396;10.696;2023-02-01T08:52:45;4.60;99.90
29551;DHT22;16488;52.396;10.696;2023-02-01T08:55:12;4.60;99.90
29551;DHT22;16488;52.396;10.696;2023-02-01T08:57:39;4.60;99.90
29551;DHT22;16488;52.396;10.696;2023-02-01T09:00:06;4.60;99.90
29551;DHT22;16488;52.396;10.696;2023-02-01T09:02:32;4.50;99.90
29551;DHT22;16488;52.396;10.696;2023-02-01T09:04:58;4.60;99.90
29551;DHT22;16488;52.396;10.696;2023-02-01T09:07:25;4.60;99.90
29551;DHT22;16488;52.396;10.696;2023-02-01T09:09:50;4.60;99.90
29551;DHT22;16488;52.396;10.696;2023-02-01T09:12:16;4.60;99.90
29551;DHT22;16488;52.396;10.696;2023-02-01T09:14:42;4.70;99.90
29551;DHT22;16488;52.396;10.696;2023-02-01T09:17:08;4.80;99.90
29551;DHT22;16488;52.396;10.696;2023-02-01T09:19:33;4.90;99.90
29551;DHT22;16488;52.396;10.696;2023-02-01T09:21:59;4.80;99.90
29551;DHT22;16488;52.396;10.696;2023-02-01T09:24:25;4.80;99.90
29551;DHT22;16488;52.396;10.696;2023-02-01T09:26:51;4.80;99.90
29551;DHT22;16488;52.396;10.696;2023-02-01T09:29:17;4.80;99.90
29551;DHT22;16488;52.396;10.696;2023-02-01T09:31:43;4.90;99.90
29551;DHT22;16488;52.396;10.696;2023-02-01T09:34:09;5.00;99.90
29551;DHT22;16488;52.396;10.696;2023-02-01T09:36:34;5.10;99.90
29551;DHT22;16488;52.396;10.696;2023-02-01T09:39:01;5.30;99.90
29551;DHT22;16488;52.396;10.696;2023-02-01T09:41:32;5.10;99.90
29551;DHT22;16488;52.396;10.696;2023-02-01T09:44:12;5.00;99.90
29551;DHT22;16488;52.396;10.696;2023-02-01T09:46:42;4.90;99.90
29551;DHT22;16488;52.396;10.696;2023-02-01T09:49:22;4.70;99.90
29551;DHT22;16488;52.396;10.696;2023-02-01T09:51:51;4.70;99.90
29551;DHT22;16488;52.396;10.696;2023-02-01T09:54:27;4.70;99.90
29551;DHT22;16488;52.396;10.696;2023-02-01T09:59:42;4.80;99.90
29551;DHT22;16488;52.396;10.696;2023-02-01T10:02:21;5.10;99.90
29551;DHT22;16488;52.396;10.696;2023-02-01T10:04:48;5.20;99.90
29551;DHT22;16488;52.396;10.696;2023-02-01T10:10:25;5.40;99.90
29551;DHT22;16488;52.396;10.696;2023-02-01T10:15:52;5.40;99.90
29551;DHT22;16488;52.396;10.696;2023-02-01T10:26:33;5.50;99.90
29551;DHT22;16488;52.396;10.696;2023-02-01T10:29:04;5.50;99.90
29551;DHT22;16488;52.396;10.696;2023-02-01T10:31:33;5.40;99.90
29551;DHT22;16488;52.396;10.696;2023-02-01T10:34:06;5.40;99.90
29551;DHT22;16488;52.396;10.696;2023-02-01T10:36:47;5.40;99.90
29551;DHT22;16488;52.396;10.696;2023-02-01T10:39:15;5.40;99.90
29551;DHT22;16488;52.396;10.696;2023-02-01T10:41:41;5.30;99.90
29551;DHT22;16488;52.396;10.696;2023-02-01T10:44:12;5.30;99.90
29551;DHT22;16488;52.396;10.696;2023-02-01T10:46:38;5.30;99.90
29551;DHT22;16488;52.396;10.696;2023-02-01T10:49:08;5.30;99.90
29551;DHT22;16488;52.396;10.696;2023-02-01T10:51:43;5.40;99.90
29551;DHT22;16488;52.396;10.696;2023-02-01T10:54:21;5.40;99.90
29551;DHT22;16488;52.396;10.696;2023-02-01T10:56:48;5.30;99.90
29551;DHT22;16488;52.396;10.696;2023-02-01T10:59:20;5.40;99.90
29551;DHT22;16488;52.396;10.696;2023-02-01T11:01:47;5.40;99.90
29551;DHT22;16488;52.396;10.696;2023-02-01T11:04:18;5.50;99.90
29551;DHT22;16488;52.396;10.696;2023-02-01T11:07:12;5.60;99.90
29551;DHT22;16488;52.396;10.696;2023-02-01T11:09:38;5.70;99.90
29551;DHT22;16488;52.396;10.696;2023-02-01T11:12:05;5.80;99.90
29551;DHT22;16488;52.396;10.696;2023-02-01T11:14:47;5.90;99.90
29551;DHT22;16488;52.396;10.696;2023-02-01T11:17:26;6.00;99.90
29551;DHT22;16488;52.396;10.696;2023-02-01T11:20:06;6.00;99.90
29551;DHT22;16488;52.396;10.696;2023-02-01T11:22:37;6.00;99.90
29551;DHT22;16488;52.396;10.696;2023-02-01T11:25:09;6.00;99.90
29551;DHT22;16488;52.396;10.696;2023-02-01T11:27:36;6.00;99.90
29551;DHT22;16488;52.396;10.696;2023-02-01T11:30:03;6.00;99.90
29551;DHT22;16488;52.396;10.696;2023-02-01T11:32:30;6.10;99.90
29551;DHT22;16488;52.396;10.696;2023-02-01T11:35:06;6.10;99.90
29551;DHT22;16488;52.396;10.696;2023-02-01T11:37:41;6.10;99.90
29551;DHT22;16488;52.396;10.696;2023-02-01T11:42:54;6.10;99.90
29551;DHT22;16488;52.396;10.696;2023-02-01T11:45:28;6.10;99.90
29551;DHT22;16488;52.396;10.696;2023-02-01T11:47:57;6.20;99.90
29551;DHT22;16488;52.396;10.696;2023-02-01T12:06:57;6.70;99.90
29551;DHT22;16488;52.396;10.696;2023-02-01T12:12:25;6.70;99.90
29551;DHT22;16488;52.396;10.696;2023-02-01T12:15:14;6.70;99.90
29551;DHT22;16488;52.396;10.696;2023-02-01T12:42:55;6.50;99.90
29551;DHT22;16488;52.396;10.696;2023-02-01T12:45:42;6.50;99.90
29551;DHT22;16488;52.396;10.696;2023-02-01T12:50:57;6.50;99.90
29551;DHT22;16488;52.396;10.696;2023-02-01T12:56:10;6.40;99.90
29551;DHT22;16488;52.396;10.696;2023-02-01T12:58:50;6.30;99.90
29551;DHT22;16488;52.396;10.696;2023-02-01T13:01:38;6.10;99.90
29551;DHT22;16488;52.396;10.696;2023-02-01T13:04:16;5.90;99.90
29551;DHT22;16488;52.396;10.696;2023-02-01T13:07:01;5.80;99.90
29551;DHT22;16488;52.396;10.696;2023-02-01T13:09:35;5.60;99.90
29551;DHT22;16488;52.396;10.696;2023-02-01T13:12:44;5.60;99.90
29551;DHT22;16488;52.396;10.696;2023-02-01T13:17:49;5.40;99.90
29551;DHT22;16488;52.396;10.696;2023-02-01T13:21:01;5.40;99.90
29551;DHT22;16488;52.396;10.696;2023-02-01T13:23:31;5.40;99.90
29551;DHT22;16488;52.396;10.696;2023-02-01T13:25:58;5.30;99.90
29551;DHT22;16488;52.396;10.696;2023-02-01T13:28:27;5.20;99.90
29551;DHT22;16488;52.396;10.696;2023-02-01T13:39:32;5.20;99.90
29551;DHT22;16488;52.396;10.696;2023-02-01T13:42:05;5.20;99.90
29551;DHT22;16488;52.396;10.696;2023-02-01T13:44:49;5.20;99.90
29551;DHT22;16488;52.396;10.696;2023-02-01T13:47:33;5.20;99.90
29551;DHT22;16488;52.396;10.696;2023-02-01T13:50:09;5.10;99.90
29551;DHT22;16488;52.396;10.696;2023-02-01T13:52:40;5.10;99.90
29551;DHT22;16488;52.396;10.696;2023-02-01T13:55:23;5.10;99.90
29551;DHT22;16488;52.396;10.696;2023-02-01T13:57:52;5.00;99.90
29551;DHT22;16488;52.396;10.696;2023-02-01T14:00:35;4.90;99.90
29551;DHT22;16488;52.396;10.696;2023-02-01T14:08:13;4.80;99.90
29551;DHT22;16488;52.396;10.696;2023-02-01T14:21:29;4.60;99.90
29551;DHT22;16488;52.396;10.696;2023-02-01T14:26:54;4.50;99.90
29551;DHT22;16488;52.396;10.696;2023-02-01T14:29:35;4.50;99.90
29551;DHT22;16488;52.396;10.696;2023-02-01T14:32:20;4.50;99.90
29551;DHT22;16488;52.396;10.696;2023-02-01T14:47:40;4.40;99.90
29551;DHT22;16488;52.396;10.696;2023-02-01T14:52:42;4.50;99.90
29551;DHT22;16488;52.396;10.696;2023-02-01T14:55:24;4.40;99.90
29551;DHT22;16488;52.396;10.696;2023-02-01T14:57:53;4.50;99.90
29551;DHT22;16488;52.396;10.696;2023-02-01T15:00:26;4.50;99.90
29551;DHT22;16488;52.396;10.696;2023-02-01T15:02:54;4.50;99.90
29551;DHT22;16488;52.396;10.696;2023-02-01T15:05:27;4.50;99.90
29551;DHT22;16488;52.396;10.696;2023-02-01T15:07:58;4.40;99.90
29551;DHT22;16488;52.396;10.696;2023-02-01T15:10:25;4.30;99.90
29551;DHT22;16488;52.396;10.696;2023-02-01T15:12:51;4.30;99.90
29551;DHT22;16488;52.396;10.696;2023-02-01T15:15:22;4.20;99.90
29551;DHT22;16488;52.396;10.696;2023-02-01T15:17:54;4.20;99.90
29551;DHT22;16488;52.396;10.696;2023-02-01T15:20:23;4.10;99.90
29551;DHT22;16488;52.396;10.696;2023-02-01T15:22:59;4.00;99.90
29551;DHT22;16488;52.396;10.696;2023-02-01T15:25:28;4.00;99.90
29551;DHT22;16488;52.396;10.696;2023-02-01T15:27:54;4.00;99.90
29551;DHT22;16488;52.396;10.696;2023-02-01T15:30:21;4.00;99.90
29551;DHT22;16488;52.396;10.696;2023-02-01T15:32:48;4.00;99.90
29551;DHT22;16488;52.396;10.696;2023-02-01T15:35:39;4.00;99.90
29551;DHT22;16488;52.396;10.696;2023-02-01T15:41:23;4.00;99.90
29551;DHT22;16488;52.396;10.696;2023-02-01T15:46:35;4.00;99.90
29551;DHT22;16488;52.396;10.696;2023-02-01T15:49:02;4.00;99.90
29551;DHT22;16488;52.396;10.696;2023-02-01T15:51:31;3.90;99.90
29551;DHT22;16488;52.396;10.696;2023-02-01T15:54:06;3.90;99.90
29551;DHT22;16488;52.396;10.696;2023-02-01T15:56:38;3.90;99.90
29551;DHT22;16488;52.396;10.696;2023-02-01T15:59:28;3.90;99.90
29551;DHT22;16488;52.396;10.696;2023-02-01T16:01:55;3.90;99.90
29551;DHT22;16488;52.396;10.696;2023-02-01T16:04:26;3.90;99.90
29551;DHT22;16488;52.396;10.696;2023-02-01T16:06:57;3.90;99.90
29551;DHT22;16488;52.396;10.696;2023-02-01T16:09:36;3.90;99.90
29551;DHT22;16488;52.396;10.696;2023-02-01T16:12:03;3.80;99.90
29551;DHT22;16488;52.396;10.696;2023-02-01T16:14:29;3.70;99.90
29551;DHT22;16488;52.396;10.696;2023-02-01T16:16:58;3.70;99.90
29551;DHT22;16488;52.396;10.696;2023-02-01T16:19:24;3.60;99.90
29551;DHT22;16488;52.396;10.696;2023-02-01T16:21:54;3.60;99.90
29551;DHT22;16488;52.396;10.696;2023-02-01T16:24:20;3.60;99.90
29551;DHT22;16488;52.396;10.696;2023-02-01T16:26:47;3.70;99.90
29551;DHT22;16488;52.396;10.696;2023-02-01T16:29:13;3.70;99.90
29551;DHT22;16488;52.396;10.696;2023-02-01T16:31:40;3.70;99.90
29551;DHT22;16488;52.396;10.696;2023-02-01T16:34:09;3.70;99.90
29551;DHT22;16488;52.396;10.696;2023-02-01T16:36:38;3.70;99.90
29551;DHT22;16488;52.396;10.696;2023-02-01T16:39:04;3.70;99.90
29551;DHT22;16488;52.396;10.696;2023-02-01T16:41:32;3.80;99.90
29551;DHT22;16488;52.396;10.696;2023-02-01T16:43:58;3.80;99.90
29551;DHT22;16488;52.396;10.696;2023-02-01T16:46:26;3.80;99.90
29551;DHT22;16488;52.396;10.696;2023-02-01T16:48:55;3.90;99.90
29551;DHT22;16488;52.396;10.696;2023-02-01T16:51:22;3.90;99.90
29551;DHT22;16488;52.396;10.696;2023-02-01T16:53:48;3.90;99.90
29551;DHT22;16488;52.396;10.696;2023-02-01T16:56:22;4.00;99.90
29551;DHT22;16488;52.396;10.696;2023-02-01T16:58:48;4.00;99.90
29551;DHT22;16488;52.396;10.696;2023-02-01T17:01:15;4.00;99.90
29551;DHT22;16488;52.396;10.696;2023-02-01T17:03:41;4.00;99.90
29551;DHT22;16488;52.396;10.696;2023-02-01T17:06:10;4.00;99.90
29551;DHT22;16488;52.396;10.696;2023-02-01T17:08:40;4.00;99.90
29551;DHT22;16488;52.396;10.696;2023-02-01T17:11:06;4.00;99.90
29551;DHT22;16488;52.396;10.696;2023-02-01T17:13:33;4.00;99.90
29551;DHT22;16488;52.396;10.696;2023-02-01T17:16:15;4.00;99.90
29551;DHT22;16488;52.396;10.696;2023-02-01T17:18:50;4.00;99.90
29551;DHT22;16488;52.396;10.696;2023-02-01T17:21:17;4.00;99.90
29551;DHT22;16488;52.396;10.696;2023-02-01T17:23:43;4.00;99.90
29551;DHT22;16488;52.396;10.696;2023-02-01T17:26:11;4.00;99.90
29551;DHT22;16488;52.396;10.696;2023-02-01T17:28:37;4.10;99.90
29551;DHT22;16488;52.396;10.696;2023-02-01T17:31:03;4.10;99.90
29551;DHT22;16488;52.396;10.696;2023-02-01T17:33:35;4.10;99.90
29551;DHT22;16488;52.396;10.696;2023-02-01T17:36:01;3.80;99.90
29551;DHT22;16488;52.396;10.696;2023-02-01T17:38:27;3.60;99.90
29551;DHT22;16488;52.396;10.696;2023-02-01T17:40:52;3.30;99.90
29551;DHT22;16488;52.396;10.696;2023-02-01T17:43:23;3.20;99.90
29551;DHT22;16488;52.396;10.696;2023-02-01T17:46:00;3.10;99.90
29551;DHT22;16488;52.396;10.696;2023-02-01T17:48:27;3.10;99.90
29551;DHT22;16488;52.396;10.696;2023-02-01T17:50:52;3.10;99.90
29551;DHT22;16488;52.396;10.696;2023-02-01T17:53:25;3.20;99.90
29551;DHT22;16488;52.396;10.696;2023-02-01T17:55:51;3.30;99.90
29551;DHT22;16488;52.396;10.696;2023-02-01T17:58:17;3.50;99.90
29551;DHT22;16488;52.396;10.696;2023-02-01T18:00:45;3.50;99.90
29551;DHT22;16488;52.396;10.696;2023-02-01T18:03:26;3.60;99.90
29551;DHT22;16488;52.396;10.696;2023-02-01T18:05:53;3.60;99.90
29551;DHT22;16488;52.396;10.696;2023-02-01T18:08:25;3.60;99.90
29551;DHT22;16488;52.396;10.696;2023-02-01T18:10:53;3.60;99.90
29551;DHT22;16488;52.396;10.696;2023-02-01T18:13:20;3.60;99.90
29551;DHT22;16488;52.396;10.696;2023-02-01T18:15:46;3.60;99.90
29551;DHT22;16488;52.396;10.696;2023-02-01T18:18:11;3.60;99.90
29551;DHT22;16488;52.396;10.696;2023-02-01T18:20:39;3.70;99.90
29551;DHT22;16488;52.396;10.696;2023-02-01T18:23:13;3.80;99.90
29551;DHT22;16488;52.396;10.696;2023-02-01T18:25:39;3.80;99.90
29551;DHT22;16488;52.396;10.696;2023-02-01T18:28:05;3.90;99.90